KBRD/BRD METAR and TAF weather

Enter ICAO airport designator
Station Type Date Time Source
KBRD METAR 2022/06/28 23:53 UTC NOAA

KBRD 282353Z AUTO 31004KT 10SM CLR 19/09 A3010 RMK AO2 RAB01E10 SLP193 P0000 60000 T01940089 10233 20194 56003


Station Type Date Time Source
KBRD Decoded METAR 2022/06/28 23:53 UTC NOAA

BRAINERD-CROW WING CO AIRPORT , MN, United States (KBRD) 46-24N 94-08W 372M
Jun 28, 2022 - 07:53 PM EDT / 2022.06.28 2353 UTC
Wind: from the NW (310 degrees) at 5 MPH (4 KT):0
Visibility: 10 mile(s):0
Sky conditions: clear
Precipitation last hour: A trace
Temperature: 66.9 F (19.4 C)
Dew Point: 48.0 F (8.9 C)
Relative Humidity: 50%
Pressure (altimeter): 30.1 in. Hg (1019 hPa)
Pressure tendency: 0.01 inches (0.3 hPa) lower than three hours ago
ob: KBRD 282353Z AUTO 31004KT 10SM CLR 19/09 A3010 RMK AO2 RAB01E10 SLP193 P0000 60000 T01940089 10233 20194 56003
cycle: 0

Station Type Date Time Source
KBRD TAF 2022/06/28 18:24 UTC NOAA

TAF KBRD 281721Z 2818/2918 34009KT P6SM VCSH BKN060
FM290100 VRB04KT P6SM FEW060
FM291500 16010G18KT P6SM SCT100

Example: see airport list